Time;durP1;ratioP1;P1;durP2;ratioP2;P2;SDS_P1;SDS_P2;PMS_P1;PMS_P2;Temp;Humidity;BMP_temperature;BMP_pressure;BME280_temperature;BME280_humidity;BME280_pressure;Samples;Min_cycle;Max_cycle;Signal;HPM_P1;HPM_P2
2023/03/29 00:02:02;;;;;;;;;;;;;;;22.25;41.96;101105.81;7256750;19;154101;-56
2023/03/29 00:04:29;;;;;;;;;;;;;;;22.24;41.42;101092.88;7261172;19;153915;-56
2023/03/29 00:06:56;;;;;;;;;;;;;;;22.24;41.61;101096.53;7253998;19;152348;-55
2023/03/29 00:09:25;;;;;;;;;;;;;;;22.21;41.75;101093.50;7266498;19;152628;-56
2023/03/29 00:11:52;;;;;;;;;;;;;;;22.19;41.64;101085.38;7256610;19;153905;-55
2023/03/29 00:14:19;;;;;;;;;;;;;;;22.17;41.69;101087.66;7258634;19;153178;-55
2023/03/29 00:16:45;;;;;;;;;;;;;;;22.16;41.67;101097.28;7251282;19;153682;-55
2023/03/29 00:19:12;;;;;;;;;;;;;;;22.14;41.83;101099.56;7257824;19;152139;-55
2023/03/29 00:21:39;;;;;;;;;;;;;;;22.12;41.84;101093.44;7256027;19;153253;-55
2023/03/29 00:24:06;;;;;;;;;;;;;;;22.10;41.81;101093.72;7259125;19;154051;-55
2023/03/29 00:26:33;;;;;;;;;;;;;;;22.08;41.97;101089.56;7256743;19;151821;-55
2023/03/29 00:29:02;;;;;;;;;;;;;;;22.05;42.22;101091.03;7261019;19;152755;-56
2023/03/29 00:31:30;;;;;;;;;;;;;;;22.05;41.83;101091.03;7261837;19;152297;-56
2023/03/29 00:33:57;;;;;;;;;;;;;;;22.03;41.98;101089.69;7259096;19;153509;-56
2023/03/29 00:36:24;;;;;;;;;;;;;;;22.00;42.31;101091.13;7255275;19;153994;-55
2023/03/29 00:38:51;;;;;;;;;;;;;;;21.98;42.56;101093.44;7257791;19;152857;-55
2023/03/29 00:41:17;;;;;;;;;;;;;;;21.96;42.62;101084.47;7255903;19;153876;-55
2023/03/29 00:43:51;;;;;;;;;;;;;;;21.95;42.36;101084.78;7254039;19;153353;-55
2023/03/29 00:46:18;;;;;;;;;;;;;;;21.93;42.73;101084.28;7252614;19;152264;-56
2023/03/29 00:48:45;;;;;;;;;;;;;;;21.90;42.54;101093.31;7254612;19;154851;-56
2023/03/29 00:51:14;;;;;;;;;;;;;;;21.89;42.31;101100.09;7259811;19;154151;-56
2023/03/29 00:53:52;;;;;;;;;;;;;;;21.85;42.43;101088.63;7254247;19;153325;-56
2023/03/29 00:56:30;;;;;;;;;;;;;;;21.85;42.30;101082.19;7255233;19;152773;-56
2023/03/29 00:59:03;;;;;;;;;;;;;;;21.84;42.47;101074.88;7256371;19;153683;-56
2023/03/29 01:01:53;;;;;;;;;;;;;;;21.81;42.88;101072.69;7251530;19;153080;-56
2023/03/29 01:04:28;;;;;;;;;;;;;;;21.80;42.66;101076.66;7255233;19;154057;-56
2023/03/29 01:07:29;;;;;;;;;;;;;;;21.77;42.55;101071.66;7256235;19;153429;-56
2023/03/29 01:10:00;;;;;;;;;;;;;;;21.75;42.42;101063.53;7252412;19;152696;-56
2023/03/29 01:12:31;;;;;;;;;;;;;;;21.72;42.67;101061.34;7255615;19;153546;-56
2023/03/29 01:15:00;;;;;;;;;;;;;;;21.72;42.62;101066.97;7264259;19;152594;-56
2023/03/29 01:17:30;;;;;;;;;;;;;;;21.69;42.86;101064.78;7250381;19;154379;-56
2023/03/29 01:20:09;;;;;;;;;;;;;;;21.69;42.94;101065.63;7256177;19;153855;-56
2023/03/29 01:22:50;;;;;;;;;;;;;;;21.64;42.60;101062.06;7254369;19;153438;-56
2023/03/29 01:25:35;;;;;;;;;;;;;;;21.62;42.80;101053.94;7253580;19;153970;-57
2023/03/29 01:28:09;;;;;;;;;;;;;;;21.59;42.94;101051.78;7259997;19;153497;-56
2023/03/29 01:30:39;;;;;;;;;;;;;;;21.59;43.04;101063.03;7253182;19;153416;-56
2023/03/29 01:33:11;;;;;;;;;;;;;;;21.55;42.90;101064.78;7253969;19;154235;-57
2023/03/29 01:35:48;;;;;;;;;;;;;;;21.54;43.06;101054.69;7255652;19;152922;-56
2023/03/29 01:38:19;;;;;;;;;;;;;;;21.51;43.32;101058.13;7263035;19;152694;-57
2023/03/29 01:40:46;;;;;;;;;;;;;;;21.49;43.12;101051.97;7255230;19;152120;-56
2023/03/29 01:43:21;;;;;;;;;;;;;;;21.48;43.52;101041.06;7256628;19;155265;-56
2023/03/29 01:45:53;;;;;;;;;;;;;;;21.43;43.35;101032.72;7252190;19;154335;-56
2023/03/29 01:48:29;;;;;;;;;;;;;;;21.41;43.42;101035.84;7255095;19;152490;-56
2023/03/29 01:50:56;;;;;;;;;;;;;;;21.38;43.67;101033.66;7255479;19;153991;-56
2023/03/29 01:53:29;;;;;;;;;;;;;;;21.37;43.24;101031.16;7254767;19;153783;-56
2023/03/29 01:55:57;;;;;;;;;;;;;;;21.35;43.51;101027.84;7255108;19;151843;-55
2023/03/29 01:58:27;;;;;;;;;;;;;;;21.33;43.49;101027.31;7265521;19;153829;-56
2023/03/29 02:00:54;;;;;;;;;;;;;;;21.30;43.34;101023.16;7266200;19;155916;-56
2023/03/29 02:03:23;;;;;;;;;;;;;;;21.29;43.24;101015.88;7262795;19;152615;-56
2023/03/29 02:05:52;;;;;;;;;;;;;;;21.26;43.74;101008.03;7258827;19;154390;-56
2023/03/29 02:08:21;;;;;;;;;;;;;;;21.23;43.46;101000.25;7263079;19;153699;-56
2023/03/29 02:10:48;;;;;;;;;;;;;;;21.25;43.39;101000.78;7261184;19;152581;-56
2023/03/29 02:13:16;;;;;;;;;;;;;;;21.22;43.84;101004.19;7262660;19;153773;-56
2023/03/29 02:15:46;;;;;;;;;;;;;;;21.20;43.41;101004.53;7258927;19;153667;-56
2023/03/29 02:18:15;;;;;;;;;;;;;;;21.16;43.70;101005.47;7259749;19;152446;-56
2023/03/29 02:20:46;;;;;;;;;;;;;;;21.14;43.77;101007.72;7259679;19;153470;-55
2023/03/29 02:23:17;;;;;;;;;;;;;;;21.12;43.92;101019.25;7269711;19;153241;-56
2023/03/29 02:25:45;;;;;;;;;;;;;;;21.10;43.65;101027.16;7259484;19;153346;-56
2023/03/29 02:28:12;;;;;;;;;;;;;;;21.10;43.66;101034.75;7260802;19;153479;-56
2023/03/29 02:30:58;;;;;;;;;;;;;;;21.06;43.91;101030.91;7257145;19;153964;-56
2023/03/29 02:33:30;;;;;;;;;;;;;;;21.06;43.78;101034.53;7255193;19;153265;-56
2023/03/29 02:36:18;;;;;;;;;;;;;;;21.05;44.06;101032.88;7258365;19;153518;-55
2023/03/29 02:38:45;;;;;;;;;;;;;;;21.02;43.64;101016.66;7258448;19;153798;-55
2023/03/29 02:41:12;;;;;;;;;;;;;;;21.00;44.08;101006.84;7255324;19;153371;-56
2023/03/29 02:43:39;;;;;;;;;;;;;;;21.01;43.97;101000.09;7267080;19;152173;-56
2023/03/29 02:46:06;;;;;;;;;;;;;;;20.98;44.19;101000.72;7255824;19;153901;-56
2023/03/29 02:48:35;;;;;;;;;;;;;;;20.95;43.87;101004.97;7260265;19;152602;-56
2023/03/29 02:51:07;;;;;;;;;;;;;;;20.92;44.15;101007.56;7258552;19;154614;-55
2023/03/29 02:53:40;;;;;;;;;;;;;;;20.91;44.39;101001.13;7253658;19;154299;-55
2023/03/29 02:56:07;;;;;;;;;;;;;;;20.90;44.38;100999.44;7256321;19;152986;-56
2023/03/29 02:58:35;;;;;;;;;;;;;;;20.84;44.24;101001.53;7259331;19;153514;-56
2023/03/29 03:01:05;;;;;;;;;;;;;;;20.90;44.36;100993.00;7255360;19;155058;-56
2023/03/29 03:03:32;;;;;;;;;;;;;;;20.87;44.07;101005.69;7258941;19;153716;-56
2023/03/29 03:06:00;;;;;;;;;;;;;;;20.82;44.51;101005.78;7264226;19;153659;-56
2023/03/29 03:08:27;;;;;;;;;;;;;;;20.83;44.58;101005.47;7258906;19;153047;-56
2023/03/29 03:10:54;;;;;;;;;;;;;;;20.80;44.57;100999.66;7259261;19;153478;-56
2023/03/29 03:13:20;;;;;;;;;;;;;;;20.81;44.56;100999.31;7259287;19;153498;-56
2023/03/29 03:15:48;;;;;;;;;;;;;;;20.79;44.21;101014.84;7256573;19;153485;-56
2023/03/29 03:18:15;;;;;;;;;;;;;;;20.78;44.35;101007.53;7258344;19;153329;-55
2023/03/29 03:20:45;;;;;;;;;;;;;;;20.78;44.35;100999.13;7256576;19;154076;-56
2023/03/29 03:23:12;;;;;;;;;;;;;;;20.73;44.68;100986.00;7260613;19;153689;-55
2023/03/29 03:25:39;;;;;;;;;;;;;;;20.68;44.71;100986.09;7256696;19;152561;-56
2023/03/29 03:28:06;;;;;;;;;;;;;;;20.66;44.56;100993.19;7268056;19;153647;-55
2023/03/29 03:30:33;;;;;;;;;;;;;;;20.64;44.74;100993.47;7261865;19;153677;-56
2023/03/29 03:33:00;;;;;;;;;;;;;;;20.67;44.51;100990.03;7259129;19;154505;-56
2023/03/29 03:35:27;;;;;;;;;;;;;;;20.69;44.83;100984.13;7260210;19;153214;-55
2023/03/29 03:37:54;;;;;;;;;;;;;;;20.66;44.46;100977.16;7262521;19;152659;-55
2023/03/29 03:40:21;;;;;;;;;;;;;;;20.64;44.56;100975.78;7260371;19;154036;-56
2023/03/29 03:42:48;;;;;;;;;;;;;;;20.64;44.72;100976.63;7257974;19;154106;-55
2023/03/29 03:45:15;;;;;;;;;;;;;;;20.61;44.80;100971.63;7258057;19;153209;-56
2023/03/29 03:47:42;;;;;;;;;;;;;;;20.54;45.16;100959.13;7253106;19;153500;-55
2023/03/29 03:50:10;;;;;;;;;;;;;;;20.53;45.01;100961.13;7264530;19;152879;-55
2023/03/29 03:52:37;;;;;;;;;;;;;;;20.54;45.04;100968.38;7257211;19;154237;-55
2023/03/29 03:55:04;;;;;;;;;;;;;;;20.54;44.96;100965.56;7255755;19;152702;-55
2023/03/29 03:57:31;;;;;;;;;;;;;;;20.50;44.96;100961.72;7258400;19;152677;-55
2023/03/29 03:59:58;;;;;;;;;;;;;;;20.47;44.83;100961.50;7255551;19;152657;-56
2023/03/29 04:02:26;;;;;;;;;;;;;;;20.45;44.91;100967.41;7251353;19;154348;-56
2023/03/29 04:04:53;;;;;;;;;;;;;;;20.42;45.39;100970.84;7258035;19;153625;-56
2023/03/29 04:07:20;;;;;;;;;;;;;;;20.40;45.40;100979.56;7254604;19;153367;-56
2023/03/29 04:09:47;;;;;;;;;;;;;;;20.38;45.14;100975.41;7258111;19;152367;-56
2023/03/29 04:12:14;;;;;;;;;;;;;;;20.36;45.30;100970.09;7263878;19;152893;-56
2023/03/29 04:14:41;;;;;;;;;;;;;;;20.34;45.64;100963.16;7260336;19;152033;-56
2023/03/29 04:17:08;;;;;;;;;;;;;;;20.32;45.33;100968.22;7254228;19;153756;-56
2023/03/29 04:19:35;;;;;;;;;;;;;;;20.35;45.44;100962.81;7253847;19;154242;-56
2023/03/29 04:22:02;;;;;;;;;;;;;;;20.30;45.34;100962.09;7256927;19;153125;-56
2023/03/29 04:24:33;;;;;;;;;;;;;;;20.30;45.51;100959.28;7258623;19;152952;-56
2023/03/29 04:27:00;;;;;;;;;;;;;;;20.31;45.55;100960.94;7255620;19;155612;-56
2023/03/29 04:29:27;;;;;;;;;;;;;;;20.31;45.62;100946.91;7259170;19;153137;-55
2023/03/29 04:31:55;;;;;;;;;;;;;;;20.28;45.43;100948.34;7254519;19;152980;-56
2023/03/29 04:34:22;;;;;;;;;;;;;;;20.24;45.74;100947.28;7261739;19;154898;-56
2023/03/29 04:36:51;;;;;;;;;;;;;;;20.25;45.76;100940.53;7254767;19;153353;-56
2023/03/29 04:39:18;;;;;;;;;;;;;;;20.21;45.62;100947.91;7256681;19;156070;-55
2023/03/29 04:41:46;;;;;;;;;;;;;;;20.19;45.79;100941.75;7255509;19;152904;-56
2023/03/29 04:44:13;;;;;;;;;;;;;;;20.16;45.66;100941.53;7256859;19;155226;-56
2023/03/29 04:46:39;;;;;;;;;;;;;;;20.19;46.01;100936.16;7253570;19;154587;-56
2023/03/29 04:49:06;;;;;;;;;;;;;;;20.24;45.67;100938.03;7255235;19;152764;-56
2023/03/29 04:51:33;;;;;;;;;;;;;;;20.19;46.08;100936.16;7256957;19;153389;-56
2023/03/29 04:54:00;;;;;;;;;;;;;;;20.17;45.74;100941.22;7262183;19;154002;-56
2023/03/29 04:56:26;;;;;;;;;;;;;;;20.17;45.96;100935.59;7253838;19;153196;-56
2023/03/29 04:58:53;;;;;;;;;;;;;;;20.18;45.95;100939.25;7257445;19;153386;-56
2023/03/29 05:01:20;;;;;;;;;;;;;;;20.14;45.76;100943.81;7253577;19;152444;-56
2023/03/29 05:03:47;;;;;;;;;;;;;;;20.10;45.94;100948.38;7255590;19;153554;-55
2023/03/29 05:06:14;;;;;;;;;;;;;;;20.10;45.96;100954.81;7250985;19;154121;-55
2023/03/29 05:08:41;;;;;;;;;;;;;;;20.10;45.82;100946.41;7255664;19;152186;-55
2023/03/29 05:11:09;;;;;;;;;;;;;;;20.09;45.90;100941.06;7253811;19;153405;-55
2023/03/29 05:13:36;;;;;;;;;;;;;;;20.11;46.09;100927.59;7255075;19;153978;-55
2023/03/29 05:16:03;;;;;;;;;;;;;;;20.13;45.86;100936.53;7260841;19;152147;-55
2023/03/29 05:18:30;;;;;;;;;;;;;;;20.11;46.21;100934.03;7253282;19;153372;-55
2023/03/29 05:20:58;;;;;;;;;;;;;;;20.07;45.94;100943.38;7253679;19;153798;-55
2023/03/29 05:23:25;;;;;;;;;;;;;;;20.12;46.08;100937.69;7256153;19;153991;-55
2023/03/29 05:25:52;;;;;;;;;;;;;;;20.09;45.84;100949.50;7252023;19;153147;-55
2023/03/29 05:28:19;;;;;;;;;;;;;;;20.05;46.08;100943.66;7256963;19;153094;-55
2023/03/29 05:30:47;;;;;;;;;;;;;;;20.12;45.81;100932.06;7259708;19;154262;-55
2023/03/29 05:33:14;;;;;;;;;;;;;;;20.05;46.26;100924.03;7265398;19;153781;-55
2023/03/29 05:35:40;;;;;;;;;;;;;;;20.06;46.25;100936.94;7262081;19;153120;-55
2023/03/29 05:38:07;;;;;;;;;;;;;;;20.02;46.22;100946.25;7270309;19;154102;-55
2023/03/29 05:40:34;;;;;;;;;;;;;;;20.08;46.11;100953.47;7262035;19;153027;-55
2023/03/29 05:43:01;;;;;;;;;;;;;;;20.07;46.55;100934.97;7263197;19;153101;-55
2023/03/29 05:45:28;;;;;;;;;;;;;;;20.12;46.22;100938.53;7261574;19;154356;-55
2023/03/29 05:47:56;;;;;;;;;;;;;;;20.17;46.25;100937.59;7260533;19;152058;-55
2023/03/29 05:50:23;;;;;;;;;;;;;;;20.19;46.57;100936.16;7262479;19;153125;-55
2023/03/29 05:52:50;;;;;;;;;;;;;;;20.23;46.46;100936.34;7262386;19;153655;-55
2023/03/29 05:55:17;;;;;;;;;;;;;;;20.26;46.52;100927.34;7264406;19;154384;-55
2023/03/29 05:57:44;;;;;;;;;;;;;;;20.27;46.89;100943.84;7266288;19;154245;-54
2023/03/29 06:00:18;;;;;;;;;;;;;;;20.31;46.59;100952.50;7270071;19;152947;-55
2023/03/29 06:02:45;;;;;;;;;;;;;;;20.35;47.02;100936.75;7264285;19;152486;-55
2023/03/29 06:05:12;;;;;;;;;;;;;;;20.37;47.31;100943.72;7262087;19;153570;-55
2023/03/29 06:07:39;;;;;;;;;;;;;;;20.40;47.39;100947.88;7260812;19;152892;-55
2023/03/29 06:10:08;;;;;;;;;;;;;;;20.44;46.91;100940.53;7262823;19;153461;-55
2023/03/29 06:12:35;;;;;;;;;;;;;;;20.46;47.32;100949.44;7260492;19;153510;-55
2023/03/29 06:15:03;;;;;;;;;;;;;;;20.51;47.00;100954.13;7262199;19;153107;-55
2023/03/29 06:17:32;;;;;;;;;;;;;;;20.53;47.04;100944.28;7258567;19;153342;-55
2023/03/29 06:19:59;;;;;;;;;;;;;;;20.59;46.63;100937.41;7260599;19;154134;-56
2023/03/29 06:22:26;;;;;;;;;;;;;;;20.65;46.79;100926.94;7267260;19;153389;-55
2023/03/29 06:24:53;;;;;;;;;;;;;;;20.67;46.33;100927.47;7261672;19;154354;-55
2023/03/29 06:27:20;;;;;;;;;;;;;;;20.68;46.14;100940.34;7258682;19;152065;-55
2023/03/29 06:29:47;;;;;;;;;;;;;;;20.71;46.10;100949.00;7261199;19;152864;-54
2023/03/29 06:32:14;;;;;;;;;;;;;;;20.74;46.08;100944.72;7252920;19;153733;-55
2023/03/29 06:34:41;;;;;;;;;;;;;;;20.76;45.79;100934.84;7260236;19;151998;-55
2023/03/29 06:37:08;;;;;;;;;;;;;;;20.78;45.77;100935.38;7256359;19;153125;-55
2023/03/29 06:39:35;;;;;;;;;;;;;;;20.83;45.52;100934.44;7259170;19;154156;-54
2023/03/29 06:42:02;;;;;;;;;;;;;;;20.76;45.30;100929.22;7256558;19;152682;-55
2023/03/29 06:44:44;;;;;;;;;;;;;;;20.84;44.95;100922.91;7267639;19;152628;-55
2023/03/29 06:47:12;;;;;;;;;;;;;;;20.90;45.09;100914.34;7255727;19;152222;-54
2023/03/29 06:49:39;;;;;;;;;;;;;;;20.94;44.94;100932.28;7258049;19;155055;-55
2023/03/29 06:52:05;;;;;;;;;;;;;;;20.98;44.72;100927.69;7257969;19;154206;-55
2023/03/29 06:54:39;;;;;;;;;;;;;;;21.03;44.76;100910.72;7258577;19;153006;-55
2023/03/29 06:57:06;;;;;;;;;;;;;;;21.07;44.22;100908.97;7258536;19;153205;-55
2023/03/29 06:59:33;;;;;;;;;;;;;;;21.11;44.48;100907.19;7258421;19;152370;-55
2023/03/29 07:02:01;;;;;;;;;;;;;;;21.15;43.97;100906.28;7256560;19;153899;-55
2023/03/29 07:04:34;;;;;;;;;;;;;;;21.21;44.27;100912.63;7265685;19;154044;-56
2023/03/29 07:07:02;;;;;;;;;;;;;;;21.25;43.75;100908.03;7257481;19;153756;-56
2023/03/29 07:09:29;;;;;;;;;;;;;;;21.29;44.09;100909.91;7258633;19;153741;-56
2023/03/29 07:11:57;;;;;;;;;;;;;;;21.34;44.04;100913.75;7258902;19;153137;-56
2023/03/29 07:14:27;;;;;;;;;;;;;;;21.38;43.93;100926.84;7258268;19;152066;-56
2023/03/29 07:17:05;;;;;;;;;;;;;;;21.41;43.59;100923.41;7256621;19;153230;-55
2023/03/29 07:19:32;;;;;;;;;;;;;;;21.46;43.33;100917.69;7257515;19;153943;-56
2023/03/29 07:21:59;;;;;;;;;;;;;;;21.48;43.14;100923.00;7257395;19;153047;-56
2023/03/29 07:24:31;;;;;;;;;;;;;;;21.52;43.44;100929.66;7259635;19;154069;-57
2023/03/29 07:27:01;;;;;;;;;;;;;;;21.54;43.34;100942.22;7264084;19;152470;-55
2023/03/29 07:29:30;;;;;;;;;;;;;;;21.55;43.19;100937.44;7259282;19;155617;-56
2023/03/29 07:31:57;;;;;;;;;;;;;;;21.58;42.97;100939.59;7257467;19;156074;-56
2023/03/29 07:34:39;;;;;;;;;;;;;;;21.59;43.11;100925.25;7257606;19;152235;-56
2023/03/29 07:37:08;;;;;;;;;;;;;;;21.62;42.89;100907.72;7253821;19;153208;-55
2023/03/29 07:39:35;;;;;;;;;;;;;;;21.65;43.28;100925.97;7247777;19;156350;-55
2023/03/29 07:42:02;;;;;;;;;;;;;;;21.65;42.97;100912.75;7250851;19;155234;-55
2023/03/29 07:44:40;;;;;;;;;;;;;;;21.66;42.92;100919.19;7254358;19;155441;-56
2023/03/29 07:47:07;;;;;;;;;;;;;;;21.65;42.66;100907.13;7249783;19;152792;-55
2023/03/29 07:49:34;;;;;;;;;;;;;;;21.67;42.96;100912.41;7259234;19;153648;-55
2023/03/29 07:52:02;;;;;;;;;;;;;;;21.67;42.87;100906.78;7253531;19;153761;-56
2023/03/29 07:54:37;;;;;;;;;;;;;;;21.66;42.85;100902.31;7253439;19;154411;-56
2023/03/29 07:57:03;;;;;;;;;;;;;;;21.65;42.66;100898.69;7257644;19;151931;-55
2023/03/29 07:59:30;;;;;;;;;;;;;;;21.64;42.88;100882.94;7256047;19;152853;-55
2023/03/29 08:01:58;;;;;;;;;;;;;;;21.65;42.38;100867.75;7253892;19;153551;-55
2023/03/29 08:04:33;;;;;;;;;;;;;;;21.62;42.74;100871.19;7257427;19;154982;-55
2023/03/29 08:07:00;;;;;;;;;;;;;;;21.62;42.71;100887.25;7252150;19;154560;-56
2023/03/29 08:09:27;;;;;;;;;;;;;;;21.61;42.76;100889.22;7257279;19;153746;-56
2023/03/29 08:11:54;;;;;;;;;;;;;;;21.59;42.48;100874.63;7265536;19;153433;-55
2023/03/29 08:14:22;;;;;;;;;;;;;;;21.59;42.33;100876.59;7257454;19;153496;-56
2023/03/29 08:16:50;;;;;;;;;;;;;;;21.59;42.67;100876.59;7251571;19;155034;-55
2023/03/29 08:19:17;;;;;;;;;;;;;;;21.59;42.74;100879.41;7253369;19;154363;-56
2023/03/29 08:21:43;;;;;;;;;;;;;;;21.55;42.60;100878.41;7251942;19;152497;-55
2023/03/29 08:24:10;;;;;;;;;;;;;;;21.54;42.77;100869.13;7255310;19;154425;-55
2023/03/29 08:26:38;;;;;;;;;;;;;;;21.53;42.68;100870.28;7252599;19;153878;-55
2023/03/29 08:29:07;;;;;;;;;;;;;;;21.50;42.47;100870.91;7255151;19;154382;-55
2023/03/29 08:31:34;;;;;;;;;;;;;;;21.50;42.29;100865.28;7255043;19;154175;-56
2023/03/29 08:34:01;;;;;;;;;;;;;;;21.48;42.67;100867.59;7265679;19;153737;-56
2023/03/29 08:36:28;;;;;;;;;;;;;;;21.45;42.71;100868.22;7254552;19;152917;-55
2023/03/29 08:38:55;;;;;;;;;;;;;;;21.44;42.72;100885.41;7258589;19;153406;-55
2023/03/29 08:41:37;;;;;;;;;;;;;;;21.40;42.81;100885.19;7255128;19;153695;-55
2023/03/29 08:44:16;;;;;;;;;;;;;;;21.37;42.68;100859.72;7256941;19;152766;-56
2023/03/29 08:47:05;;;;;;;;;;;;;;;21.36;43.00;100853.25;7250789;19;156197;-55
2023/03/29 08:49:33;;;;;;;;;;;;;;;21.33;42.87;100845.47;7258124;19;153487;-56
2023/03/29 08:52:03;;;;;;;;;;;;;;;21.29;43.14;100834.03;7249119;19;152748;-55
2023/03/29 08:54:41;;;;;;;;;;;;;;;21.28;43.04;100849.22;7253695;19;156192;-55
2023/03/29 08:57:15;;;;;;;;;;;;;;;21.27;43.06;100850.38;7260719;19;153969;-55
2023/03/29 08:59:44;;;;;;;;;;;;;;;21.22;42.94;100844.84;7249041;19;154305;-55
2023/03/29 09:02:18;;;;;;;;;;;;;;;21.22;42.99;100842.03;7250191;19;153412;-55
2023/03/29 09:05:05;;;;;;;;;;;;;;;21.20;43.28;100832.28;7247202;19;153130;-56
2023/03/29 09:07:41;;;;;;;;;;;;;;;21.18;43.28;100823.31;7248958;19;153808;-55
2023/03/29 09:10:14;;;;;;;;;;;;;;;21.15;43.78;100815.53;7252530;19;152895;-55
2023/03/29 09:12:49;;;;;;;;;;;;;;;21.13;43.37;100815.84;7250668;19;155295;-55
2023/03/29 09:15:18;;;;;;;;;;;;;;;21.11;43.56;100815.31;7253243;19;153871;-55
2023/03/29 09:17:45;;;;;;;;;;;;;;;21.09;43.82;100817.59;7257537;19;154000;-55
2023/03/29 09:20:26;;;;;;;;;;;;;;;21.04;43.71;100806.47;7254448;19;153983;-56
2023/03/29 09:23:01;;;;;;;;;;;;;;;21.02;43.97;100819.19;7253371;19;151962;-56
2023/03/29 09:25:46;;;;;;;;;;;;;;;21.00;44.13;100813.03;7252783;19;153735;-55
2023/03/29 09:28:31;;;;;;;;;;;;;;;20.98;43.91;100809.72;7253631;19;155064;-55
2023/03/29 09:31:15;;;;;;;;;;;;;;;20.95;44.08;100796.28;7250650;19;154831;-55
2023/03/29 09:33:51;;;;;;;;;;;;;;;20.92;44.02;100791.31;7252218;19;153084;-55
2023/03/29 09:36:27;;;;;;;;;;;;;;;20.90;44.18;100796.41;7250301;19;153365;-55
2023/03/29 09:38:54;;;;;;;;;;;;;;;20.86;44.07;100790.59;7253589;19;153585;-55
2023/03/29 09:41:28;;;;;;;;;;;;;;;20.82;44.31;100787.59;7256426;19;155092;-55
2023/03/29 09:43:56;;;;;;;;;;;;;;;20.84;44.21;100779.69;7254394;19;153250;-55
2023/03/29 09:46:29;;;;;;;;;;;;;;;20.83;44.48;100788.41;7250874;19;153064;-55
2023/03/29 09:48:57;;;;;;;;;;;;;;;20.79;44.42;100785.41;7251343;19;154988;-55
2023/03/29 09:51:25;;;;;;;;;;;;;;;20.78;44.27;100780.09;7252936;19;155218;-55
2023/03/29 09:53:56;;;;;;;;;;;;;;;20.77;44.52;100784.03;7252649;19;154296;-55
2023/03/29 09:56:23;;;;;;;;;;;;;;;20.76;44.38;100773.94;7252680;19;155305;-55
2023/03/29 09:58:50;;;;;;;;;;;;;;;20.74;44.34;100767.84;7253920;19;153301;-55
2023/03/29 10:01:17;;;;;;;;;;;;;;;20.72;44.29;100761.69;7251393;19;153899;-55
2023/03/29 10:03:50;;;;;;;;;;;;;;;20.71;44.63;100752.47;7257322;19;154804;-55
2023/03/29 10:06:18;;;;;;;;;;;;;;;20.65;45.10;100741.66;7250224;19;153796;-55
2023/03/29 10:08:56;;;;;;;;;;;;;;;20.66;45.18;100740.50;7249956;19;153478;-56
2023/03/29 10:11:34;;;;;;;;;;;;;;;20.66;45.08;100746.13;7248491;19;153105;-55
2023/03/29 10:14:11;;;;;;;;;;;;;;;20.58;44.98;100741.25;7250550;19;153761;-55
2023/03/29 10:16:44;;;;;;;;;;;;;;;20.59;45.09;100740.91;7246065;19;154071;-55
2023/03/29 10:19:17;;;;;;;;;;;;;;;20.58;44.98;100739.25;7263831;19;153444;-55
2023/03/29 10:21:47;;;;;;;;;;;;;;;20.55;45.03;100734.28;7258864;19;154161;-55
2023/03/29 10:24:31;;;;;;;;;;;;;;;20.54;45.65;100732.59;7256894;19;154243;-55
2023/03/29 10:27:12;;;;;;;;;;;;;;;20.53;46.15;100745.00;7265430;19;152374;-56
2023/03/29 10:30:05;;;;;;;;;;;;;;;20.53;46.39;100738.56;7256760;19;153676;-55
2023/03/29 10:32:40;;;;;;;;;;;;;;;20.52;46.35;100743.34;7252728;19;153134;-55
2023/03/29 10:35:21;;;;;;;;;;;;;;;20.48;46.50;100739.50;7260003;19;154178;-55
2023/03/29 10:38:06;;;;;;;;;;;;;;;20.44;47.10;100732.00;7257281;19;153502;-55
2023/03/29 10:40:47;;;;;;;;;;;;;;;20.44;47.05;100724.44;7258033;19;153109;-55
2023/03/29 10:43:23;;;;;;;;;;;;;;;20.35;46.90;100727.09;7258271;19;153990;-55
2023/03/29 10:45:52;;;;;;;;;;;;;;;20.34;47.65;100731.09;7254595;19;154071;-55
2023/03/29 10:48:23;;;;;;;;;;;;;;;20.33;47.20;100726.59;7258854;19;153427;-55
2023/03/29 10:50:54;;;;;;;;;;;;;;;20.34;47.95;100721.84;7264436;19;153861;-55
2023/03/29 10:53:31;;;;;;;;;;;;;;;20.26;48.41;100728.16;7258182;19;152803;-55
2023/03/29 10:56:38;;;;;;;;;;;;;;;20.21;48.71;100712.25;7257325;19;152876;-56
2023/03/29 10:59:28;;;;;;;;;;;;;;;20.18;48.55;100709.22;7255995;19;153823;-55
2023/03/29 11:02:18;;;;;;;;;;;;;;;20.17;48.89;100699.16;7254280;19;153982;-55
2023/03/29 11:04:55;;;;;;;;;;;;;;;20.15;48.11;100693.84;7256706;19;153405;-55
2023/03/29 11:07:25;;;;;;;;;;;;;;;20.14;48.50;100686.56;7253368;19;154113;-55
2023/03/29 11:10:00;;;;;;;;;;;;;;;20.15;47.99;100693.84;7253805;19;153789;-55
2023/03/29 11:12:33;;;;;;;;;;;;;;;20.17;48.70;100685.94;7244211;19;153717;-55
2023/03/29 11:15:21;;;;;;;;;;;;;;;20.20;48.39;100690.09;7260447;19;153904;-55
2023/03/29 11:17:49;;;;;;;;;;;;;;;20.22;48.43;100666.19;7246163;19;154565;-54
2023/03/29 11:20:36;;;;;;;;;;;;;;;20.29;47.79;100660.19;7247220;19;155056;-54
2023/03/29 11:23:16;;;;;;;;;;;;;;;20.34;48.13;100660.94;7256828;19;152907;-55
2023/03/29 11:25:50;;;;;;;;;;;;;;;20.38;48.31;100663.94;7256679;19;153534;-55
2023/03/29 11:28:28;;;;;;;;;;;;;;;20.44;48.28;100668.31;7258352;19;154497;-55
2023/03/29 11:30:55;;;;;;;;;;;;;;;20.49;47.87;100665.34;7258995;19;153271;-55
2023/03/29 11:33:23;;;;;;;;;;;;;;;20.54;48.07;100668.06;7256360;19;155885;-55
2023/03/29 11:35:55;;;;;;;;;;;;;;;20.59;47.73;100670.75;7264517;19;153878;-55
2023/03/29 11:38:26;;;;;;;;;;;;;;;20.64;47.96;100664.19;7255950;19;152877;-55
2023/03/29 11:41:01;;;;;;;;;;;;;;;20.67;47.77;100653.16;7253721;19;153395;-55
2023/03/29 11:43:34;;;;;;;;;;;;;;;20.71;47.64;100639.31;7253279;19;153155;-55
2023/03/29 11:46:04;;;;;;;;;;;;;;;20.74;47.85;100631.09;7253664;19;152590;-55
2023/03/29 11:48:35;;;;;;;;;;;;;;;20.77;47.75;100641.69;7255089;19;154172;-55
2023/03/29 11:51:10;;;;;;;;;;;;;;;20.80;47.87;100646.66;7256107;19;153715;-55
2023/03/29 11:53:45;;;;;;;;;;;;;;;20.82;47.98;100647.19;7253487;19;155618;-55
2023/03/29 11:56:14;;;;;;;;;;;;;;;20.82;48.14;100641.56;7253544;19;152950;-55
2023/03/29 11:58:47;;;;;;;;;;;;;;;20.85;48.55;100629.69;7261877;19;153782;-55
2023/03/29 12:01:21;;;;;;;;;;;;;;;20.85;48.97;100638.09;7249993;19;154002;-55
2023/03/29 12:04:11;;;;;;;;;;;;;;;20.85;49.14;100642.88;7252706;19;153251;-55
2023/03/29 12:06:44;;;;;;;;;;;;;;;20.88;49.06;100636.66;7254987;19;153906;-55
2023/03/29 12:09:30;;;;;;;;;;;;;;;20.90;48.60;100625.91;7256374;19;153791;-55
2023/03/29 12:12:06;;;;;;;;;;;;;;;20.90;49.29;100625.91;7251815;19;153137;-55
2023/03/29 12:14:37;;;;;;;;;;;;;;;20.93;48.90;100625.31;7248503;19;152853;-55
2023/03/29 12:17:08;;;;;;;;;;;;;;;20.96;49.27;100633.06;7246925;19;154080;-55
2023/03/29 12:19:37;;;;;;;;;;;;;;;20.98;48.92;100639.22;7254839;19;153406;-55
2023/03/29 12:22:09;;;;;;;;;;;;;;;21.01;48.61;100646.16;7259108;19;153567;-55
2023/03/29 12:24:44;;;;;;;;;;;;;;;21.02;48.61;100643.03;7244246;19;155891;-55
2023/03/29 12:27:34;;;;;;;;;;;;;;;21.05;48.30;100641.56;7252584;19;153204;-55
2023/03/29 12:30:20;;;;;;;;;;;;;;;21.07;48.49;100642.09;7254138;19;153396;-55
2023/03/29 12:32:47;;;;;;;;;;;;;;;21.07;48.35;100639.28;7250841;19;153068;-55
2023/03/29 12:35:33;;;;;;;;;;;;;;;21.09;47.87;100629.38;7252278;19;154920;-55
2023/03/29 12:38:07;;;;;;;;;;;;;;;21.11;47.48;100640.28;7252645;19;153823;-55
2023/03/29 12:40:44;;;;;;;;;;;;;;;21.12;47.64;100633.53;7253712;19;153495;-55
2023/03/29 12:43:18;;;;;;;;;;;;;;;21.13;47.46;100623.97;7254162;19;154833;-55
2023/03/29 12:45:49;;;;;;;;;;;;;;;21.13;47.95;100610.75;7258656;19;154727;-55
2023/03/29 12:48:19;;;;;;;;;;;;;;;21.14;47.26;100587.13;7248044;19;153323;-55